createdAt,value
2018-09-18T11:54:31.708Z,40.30
2018-09-18T11:56:59.331Z,40.20
2018-09-18T11:59:27.015Z,40.50
2018-09-18T12:01:54.664Z,40.90
2018-09-18T12:04:22.339Z,40.80
2018-09-18T12:06:49.999Z,40.70
2018-09-18T12:09:17.667Z,40.40
2018-09-18T12:11:45.295Z,40.40
2018-09-18T12:14:12.903Z,40.50
2018-09-18T12:16:40.554Z,40.70
2018-09-18T12:19:08.228Z,41.20
2018-09-18T12:21:35.939Z,41.40
2018-09-18T12:24:03.554Z,41.30
2018-09-18T12:26:31.127Z,41.20
2018-09-18T12:28:58.743Z,41.40
2018-09-18T12:31:26.374Z,41.00
2018-09-18T12:33:54.863Z,40.80
2018-09-18T12:36:22.530Z,40.60
2018-09-18T12:38:50.114Z,40.80
2018-09-18T12:41:17.743Z,40.70
2018-09-18T12:43:45.654Z,40.70
2018-09-18T12:46:13.358Z,40.60
2018-09-18T12:48:41.647Z,40.50
2018-09-18T12:51:09.277Z,40.20
2018-09-18T12:53:36.930Z,41.20
2018-09-18T12:56:04.715Z,42.00
2018-09-18T12:58:32.350Z,41.50
2018-09-18T13:00:59.896Z,40.80
2018-09-18T13:03:27.580Z,40.70
2018-09-18T13:05:55.186Z,40.70
2018-09-18T13:08:22.775Z,40.40
2018-09-18T13:10:50.639Z,40.50
2018-09-18T13:13:18.515Z,40.50
2018-09-18T13:15:46.199Z,40.60
2018-09-18T13:18:13.822Z,40.60
2018-09-18T13:20:41.507Z,40.00
2018-09-18T13:23:09.187Z,39.70
2018-09-18T13:25:36.812Z,40.00
2018-09-18T13:28:04.471Z,40.60
2018-09-18T13:30:32.235Z,41.10
2018-09-18T13:33:00.183Z,40.90
2018-09-18T13:35:27.883Z,41.40
2018-09-18T13:37:55.571Z,41.20
2018-09-18T13:40:23.250Z,41.10
2018-09-18T13:42:50.891Z,41.70
2018-09-18T13:45:18.928Z,41.60
2018-09-18T13:47:46.510Z,41.60
2018-09-18T13:50:14.202Z,41.50
2018-09-18T13:52:41.994Z,41.90
2018-09-18T13:55:09.653Z,42.20
2018-09-18T13:57:37.454Z,42.40
2018-09-18T14:00:05.262Z,41.90
2018-09-18T14:02:32.942Z,41.60
2018-09-18T14:05:00.936Z,41.60
2018-09-18T14:07:28.574Z,41.80
2018-09-18T14:09:56.382Z,42.20
2018-09-18T14:12:24.061Z,42.60
2018-09-18T14:14:51.995Z,42.90
2018-09-18T14:17:19.651Z,42.80
2018-09-18T14:19:47.310Z,42.80
2018-09-18T14:22:14.998Z,42.90
2018-09-18T14:24:42.662Z,42.90
2018-09-18T14:27:10.347Z,43.40
2018-09-18T14:29:37.972Z,43.30
2018-09-18T14:32:05.627Z,43.60
2018-09-18T14:34:33.399Z,43.70
2018-09-18T14:37:01.076Z,43.70
2018-09-18T14:39:28.709Z,44.00
2018-09-18T14:41:56.519Z,44.60
2018-09-18T14:44:24.135Z,45.00
2018-09-18T14:46:51.902Z,45.10
2018-09-18T14:49:19.478Z,45.10
2018-09-18T14:51:47.104Z,45.00
2018-09-18T14:54:14.788Z,44.90
2018-09-18T14:56:42.574Z,44.90
2018-09-18T14:59:10.238Z,45.20
2018-09-18T15:01:37.926Z,45.40
2018-09-18T15:04:05.695Z,45.70
2018-09-18T15:06:34.051Z,45.60
2018-09-18T15:09:01.689Z,45.80
2018-09-18T15:11:30.544Z,46.10
2018-09-18T15:13:58.193Z,46.30
2018-09-18T15:16:25.955Z,46.40
2018-09-18T15:18:53.664Z,46.50
2018-09-18T15:21:21.346Z,46.60
2018-09-18T15:23:49.022Z,47.00
2018-09-18T15:26:16.722Z,47.10
2018-09-18T15:28:44.396Z,47.40
2018-09-18T15:31:12.026Z,47.60
2018-09-18T15:33:39.753Z,47.40
2018-09-18T15:36:07.353Z,47.40
2018-09-18T15:38:35.202Z,47.40
2018-09-18T15:41:02.960Z,47.50
2018-09-18T15:43:30.764Z,47.30
2018-09-18T15:45:58.630Z,47.60
2018-09-18T15:48:26.510Z,47.30
2018-09-18T15:50:54.245Z,47.20
2018-09-18T15:53:22.515Z,47.10
2018-09-18T15:55:50.371Z,47.10
2018-09-18T15:58:18.103Z,46.90
2018-09-18T16:00:45.861Z,46.60
2018-09-18T16:03:14.429Z,46.50
2018-09-18T16:05:42.170Z,46.70
2018-09-18T16:08:10.173Z,46.40
2018-09-18T16:10:37.811Z,46.50
2018-09-18T16:13:05.647Z,46.80
2018-09-18T16:18:00.872Z,46.50
2018-09-18T16:20:28.498Z,46.60
2018-09-18T16:22:56.312Z,46.70
2018-09-18T16:25:23.979Z,46.50
2018-09-18T16:27:51.698Z,46.70
2018-09-18T16:30:19.347Z,46.80
2018-09-18T16:32:47.059Z,47.10
2018-09-18T16:35:14.716Z,47.00
2018-09-18T16:37:42.386Z,47.00
2018-09-18T16:40:10.165Z,47.10
2018-09-18T16:42:37.854Z,47.40
2018-09-18T16:45:05.546Z,47.70
2018-09-18T16:47:33.279Z,47.70
2018-09-18T16:50:01.012Z,47.70
2018-09-18T16:52:28.761Z,47.90
2018-09-18T16:54:56.471Z,47.90
2018-09-18T16:57:24.929Z,48.10
2018-09-18T16:59:53.515Z,48.30
2018-09-18T17:02:21.493Z,48.40
2018-09-18T17:04:49.487Z,48.30
2018-09-18T17:07:17.360Z,48.50
2018-09-18T17:09:45.281Z,48.50
2018-09-18T17:12:13.195Z,48.60
2018-09-18T17:14:40.865Z,48.90
2018-09-18T17:17:08.570Z,49.00
2018-09-18T17:19:36.338Z,49.20
2018-09-18T17:22:03.988Z,49.30
2018-09-18T17:24:31.740Z,49.50
2018-09-18T17:26:59.796Z,49.70
2018-09-18T17:29:27.435Z,49.90
2018-09-18T17:31:55.091Z,50.20
2018-09-18T17:34:25.819Z,50.40
2018-09-18T17:36:53.366Z,50.50
2018-09-18T17:39:21.153Z,50.70
2018-09-18T17:41:48.971Z,50.90
2018-09-18T17:44:16.603Z,51.00
2018-09-18T17:46:45.164Z,51.20
2018-09-18T17:49:13.154Z,51.30
2018-09-18T17:51:42.949Z,51.70
2018-09-18T17:54:10.723Z,51.90
2018-09-18T17:56:38.428Z,52.10
2018-09-18T17:59:06.041Z,52.30
2018-09-18T18:01:33.778Z,52.50
2018-09-18T18:04:01.419Z,52.60
2018-09-18T18:06:29.120Z,52.60
2018-09-18T18:08:57.766Z,52.70
2018-09-18T18:11:25.436Z,52.80
2018-09-18T18:13:53.151Z,52.80
2018-09-18T18:16:22.559Z,52.80
2018-09-18T18:18:50.199Z,52.80
2018-09-18T18:21:18.019Z,53.00
2018-09-18T18:23:45.723Z,53.10
2018-09-18T18:26:13.364Z,53.20
2018-09-18T18:28:41.121Z,53.20
2018-09-18T18:31:08.825Z,53.40
2018-09-18T18:33:36.610Z,53.50
2018-09-18T18:36:04.434Z,53.70
2018-09-18T18:38:32.096Z,53.80
2018-09-18T18:40:59.718Z,54.20
2018-09-18T18:43:27.323Z,54.40
2018-09-18T18:45:55.142Z,54.60
2018-09-18T18:48:22.931Z,54.80
2018-09-18T18:50:50.411Z,55.00
2018-09-18T18:53:18.062Z,55.20
2018-09-18T18:55:45.728Z,55.30
2018-09-18T18:58:13.315Z,55.40
2018-09-18T19:00:40.977Z,55.50
2018-09-18T19:03:08.689Z,55.80
2018-09-18T19:05:36.495Z,56.00
2018-09-18T19:08:04.695Z,56.20
2018-09-18T19:10:32.425Z,56.10
2018-09-18T19:13:00.117Z,56.10
2018-09-18T19:15:27.990Z,56.50
2018-09-18T19:17:55.808Z,56.90
2018-09-18T19:20:23.505Z,57.20
2018-09-18T19:22:51.169Z,57.40
2018-09-18T19:25:18.871Z,57.60
2018-09-18T19:27:46.575Z,57.90
2018-09-18T19:30:14.359Z,58.20
2018-09-18T19:32:44.450Z,58.30
2018-09-18T19:35:12.177Z,58.30
2018-09-18T19:37:39.813Z,58.60
2018-09-18T19:40:07.511Z,58.50
2018-09-18T19:42:35.259Z,58.50
2018-09-18T19:45:03.008Z,58.50
2018-09-18T19:47:30.844Z,58.40
2018-09-18T19:49:58.577Z,58.60
2018-09-18T19:52:26.917Z,58.70
2018-09-18T19:54:54.505Z,58.70
2018-09-18T19:57:23.167Z,58.90
2018-09-18T19:59:51.297Z,59.10
2018-09-18T20:02:18.991Z,59.10
2018-09-18T20:04:46.676Z,59.30
2018-09-18T20:07:14.376Z,59.60
2018-09-18T20:09:42.305Z,60.00
2018-09-18T20:12:10.489Z,60.30
2018-09-18T20:14:39.189Z,60.50
2018-09-18T20:17:06.883Z,60.80
2018-09-18T20:19:34.614Z,61.00
2018-09-18T20:22:02.350Z,61.60
2018-09-18T20:24:30.085Z,62.00
2018-09-18T20:26:57.775Z,62.70
2018-09-18T20:29:25.761Z,63.00
2018-09-18T20:31:53.582Z,63.60
2018-09-18T20:34:22.343Z,64.10
2018-09-18T20:36:49.939Z,64.30
2018-09-18T20:39:18.447Z,64.20
2018-09-18T20:41:46.204Z,64.00
2018-09-18T20:44:13.928Z,63.80
2018-09-18T20:46:50.713Z,63.60
2018-09-18T20:49:18.351Z,63.50
2018-09-18T20:51:46.046Z,63.20
2018-09-18T20:56:47.318Z,62.60
2018-09-18T20:59:15.207Z,62.30
2018-09-18T21:01:42.801Z,61.60
2018-09-18T21:04:14.727Z,60.90
2018-09-18T21:06:46.189Z,60.80
2018-09-18T21:09:14.289Z,60.90
2018-09-18T21:11:41.947Z,60.80
2018-09-18T21:14:09.995Z,60.60
2018-09-18T21:16:37.696Z,60.30
2018-09-18T21:19:05.837Z,60.30
2018-09-18T21:21:33.486Z,60.10
2018-09-18T21:24:01.119Z,60.00
2018-09-18T21:26:28.759Z,59.90
2018-09-18T21:28:56.417Z,59.80
2018-09-18T21:31:24.315Z,59.60
2018-09-18T21:33:51.998Z,59.60
2018-09-18T21:36:19.674Z,59.70
2018-09-18T21:38:47.350Z,59.60
2018-09-18T21:41:20.003Z,59.50
2018-09-18T21:43:47.873Z,59.60
2018-09-18T21:46:15.550Z,59.80
2018-09-18T21:48:43.206Z,59.90
2018-09-18T21:51:11.894Z,60.10
2018-09-18T21:53:39.517Z,60.40
2018-09-18T21:56:07.302Z,60.90
2018-09-18T21:58:34.945Z,61.20
2018-09-18T22:01:05.778Z,61.40
2018-09-18T22:03:33.766Z,61.70
2018-09-18T22:06:02.455Z,62.00
2018-09-18T22:08:31.498Z,62.20
2018-09-18T22:10:59.144Z,63.20
2018-09-18T22:13:26.851Z,63.10
2018-09-18T22:15:54.574Z,63.30
2018-09-18T22:18:22.376Z,63.70
2018-09-18T22:20:50.077Z,64.00
2018-09-18T22:23:17.744Z,64.20
2018-09-18T22:25:45.366Z,64.30
2018-09-18T22:28:13.092Z,64.60
2018-09-18T22:30:40.690Z,64.90
2018-09-18T22:33:08.398Z,65.20
2018-09-18T22:35:35.958Z,65.50
2018-09-18T22:38:03.677Z,65.90
2018-09-18T22:40:31.263Z,66.30
2018-09-18T22:42:59.249Z,67.60
2018-09-18T22:45:27.509Z,67.90
2018-09-18T22:47:55.203Z,67.20
2018-09-18T22:50:22.924Z,67.20
2018-09-18T22:52:50.910Z,67.30
2018-09-18T22:55:19.087Z,67.50
2018-09-18T22:57:47.190Z,67.80
2018-09-18T23:00:14.892Z,67.80
2018-09-18T23:02:42.530Z,68.30
2018-09-18T23:05:10.117Z,68.30
2018-09-18T23:07:37.759Z,68.40
2018-09-18T23:10:06.316Z,68.20
2018-09-18T23:12:33.979Z,68.10
2018-09-18T23:15:01.876Z,68.10
2018-09-18T23:17:29.523Z,68.00
2018-09-18T23:19:57.420Z,67.90
2018-09-18T23:22:25.126Z,67.90
2018-09-18T23:24:53.452Z,67.90
2018-09-18T23:27:21.270Z,67.90
2018-09-18T23:29:49.201Z,67.90
2018-09-18T23:32:16.942Z,67.80
2018-09-18T23:34:45.102Z,68.00
2018-09-18T23:37:12.767Z,67.80
2018-09-18T23:39:40.626Z,67.70
2018-09-18T23:42:08.346Z,67.80
2018-09-18T23:44:36.058Z,67.70
2018-09-18T23:47:03.810Z,67.80
2018-09-18T23:49:31.499Z,67.90
2018-09-18T23:51:59.122Z,67.90
2018-09-18T23:54:26.964Z,67.90
2018-09-18T23:56:55.720Z,67.90
2018-09-18T23:59:23.558Z,67.90
